Time;durP1;ratioP1;P1;durP2;ratioP2;P2;SDS_P1;SDS_P2;PMS_P1;PMS_P2;Temp;Humidity;BMP_temperature;BMP_pressure;BME280_temperature;BME280_humidity;BME280_pressure;Samples;Min_cycle;Max_cycle;Signal;HPM_P1;HPM_P2
2021/07/02 00:02:05;;;;;;;46.05;21.83;;;16.20;99.90;;;15.83;91.01;100618.69;5028411;28;20037;-85
2021/07/02 00:04:33;;;;;;;36.78;20.48;;;16.20;99.90;;;15.84;90.78;100605.84;5026931;28;20056;-85
2021/07/02 00:07:00;;;;;;;37.80;20.50;;;16.20;99.90;;;15.85;90.70;100610.25;5028074;28;20114;-84
2021/07/02 00:09:29;;;;;;;32.72;19.27;;;16.20;99.90;;;15.82;90.84;100603.31;5028034;28;20408;-84
2021/07/02 00:11:56;;;;;;;33.20;19.17;;;16.20;99.90;;;15.84;90.63;100608.59;5028250;28;20037;-84
2021/07/02 00:14:24;;;;;;;42.95;20.52;;;16.20;99.90;;;15.82;90.66;100610.69;5027888;28;20132;-85
2021/07/02 00:16:51;;;;;;;33.78;20.25;;;16.20;99.90;;;15.82;90.83;100605.19;5026508;28;20050;-84
2021/07/02 00:19:19;;;;;;;35.30;20.52;;;16.20;99.90;;;15.82;90.84;100603.31;5028115;28;20045;-85
2021/07/02 00:21:46;;;;;;;36.28;20.08;;;16.20;99.90;;;15.83;90.70;100606.88;5027953;28;20049;-85
2021/07/02 00:24:14;;;;;;;40.90;21.58;;;16.10;99.90;;;15.82;90.45;100602.44;5030828;28;20107;-85
2021/07/02 00:26:43;;;;;;;34.05;20.05;;;16.10;99.90;;;15.82;90.56;100599.69;5038062;28;20179;-85
2021/07/02 00:29:10;;;;;;;34.20;20.30;;;16.10;99.90;;;15.82;90.49;100595.06;5028034;28;20047;-85
2021/07/02 00:31:37;;;;;;;35.55;20.77;;;16.20;99.90;;;15.81;90.28;100595.28;5027861;28;20092;-84
2021/07/02 00:34:05;;;;;;;36.75;21.23;;;16.10;99.90;;;15.81;90.34;100600.78;5028116;28;20244;-85
2021/07/02 00:36:32;;;;;;;39.80;22.05;;;16.10;99.90;;;15.82;90.52;100594.22;5027599;28;20501;-84
2021/07/02 00:39:00;;;;;;;40.35;20.30;;;16.10;99.90;;;15.80;90.37;100588.09;5026596;28;20439;-84
2021/07/02 00:41:27;;;;;;;35.13;20.15;;;16.10;99.90;;;15.82;90.41;100594.22;5026495;28;20045;-84
2021/07/02 00:43:57;;;;;;;37.72;20.25;;;16.10;99.90;;;15.80;90.37;100588.97;5027779;28;20073;-85
2021/07/02 00:46:25;;;;;;;34.55;19.95;;;16.10;99.90;;;15.78;90.35;100588.34;5027664;28;20111;-84
2021/07/02 00:48:54;;;;;;;36.63;20.33;;;16.10;99.90;;;15.78;90.36;100582.00;5026220;28;20465;-84
2021/07/02 00:51:21;;;;;;;35.60;21.13;;;16.10;99.90;;;15.79;90.42;100578.19;5027818;28;20041;-85
2021/07/02 00:53:50;;;;;;;40.78;21.45;;;16.10;99.90;;;15.79;90.49;100583.69;5028840;28;20073;-84
2021/07/02 00:56:19;;;;;;;34.45;20.38;;;16.10;99.90;;;15.78;90.43;100582.00;5031000;28;20668;-84
2021/07/02 00:58:49;;;;;;;36.60;19.80;;;16.10;99.90;;;15.76;90.37;100582.22;5030051;28;20132;-84
2021/07/02 01:01:20;;;;;;;36.33;21.08;;;16.10;99.90;;;15.78;90.59;100582.00;5029704;28;20145;-84
2021/07/02 01:03:51;;;;;;;38.53;21.63;;;16.10;99.90;;;15.78;90.55;100576.50;5031444;28;20053;-84
2021/07/02 01:06:21;;;;;;;42.88;21.00;;;16.10;99.90;;;15.78;90.53;100582.00;5025972;28;20065;-84
2021/07/02 01:08:49;;;;;;;43.60;22.50;;;16.10;99.90;;;15.78;90.44;100582.00;5026569;28;20093;-84
2021/07/02 01:11:16;;;;;;;41.45;22.15;;;16.10;99.90;;;15.77;90.65;100580.31;5009808;28;20058;-84
2021/07/02 01:13:44;;;;;;;37.30;21.73;;;16.10;99.90;;;15.76;90.73;100578.63;5009968;28;20050;-84
2021/07/02 01:16:11;;;;;;;45.67;22.95;;;16.10;99.90;;;15.77;90.71;100580.31;5011027;28;20053;-84
2021/07/02 01:18:41;;;;;;;45.13;22.92;;;16.10;99.90;;;15.77;90.86;100580.31;5011093;28;20108;-84
2021/07/02 01:21:14;;;;;;;45.45;24.55;;;16.10;99.90;;;15.78;90.64;100576.50;5026268;28;20073;-85
2021/07/02 01:23:44;;;;;;;43.90;23.45;;;16.10;99.90;;;15.79;90.74;100578.19;5026036;28;20589;-84
2021/07/02 01:26:13;;;;;;;44.35;23.35;;;16.10;99.90;;;15.80;90.62;100579.88;5047028;28;20055;-84
2021/07/02 01:28:40;;;;;;;39.97;23.05;;;16.20;99.90;;;15.80;90.54;100577.13;5044164;28;20037;-84
2021/07/02 01:31:09;;;;;;;42.35;22.98;;;16.20;99.90;;;15.78;90.64;100582.84;5030599;28;20041;-84
2021/07/02 01:33:36;;;;;;;48.00;23.25;;;16.10;99.90;;;15.79;90.90;100572.72;5030840;28;20053;-85
2021/07/02 01:36:08;;;;;;;44.80;22.75;;;16.10;99.90;;;15.77;90.94;100569.34;5048844;28;20095;-84
2021/07/02 01:38:37;;;;;;;43.55;23.25;;;16.10;99.90;;;15.79;90.78;100575.47;5049108;28;20048;-84
2021/07/02 01:41:05;;;;;;;44.28;24.15;;;16.10;99.90;;;15.78;90.86;100582.00;5048963;28;20416;-84
2021/07/02 01:43:36;;;;;;;44.15;23.48;;;16.20;99.90;;;15.80;90.89;100582.63;5050564;28;20413;-84
2021/07/02 01:46:05;;;;;;;42.30;24.10;;;16.10;99.90;;;15.80;90.86;100571.63;5049995;28;20048;-85
2021/07/02 01:48:34;;;;;;;48.00;24.35;;;16.10;99.90;;;15.80;90.91;100574.38;5049055;28;20419;-84
2021/07/02 01:51:05;;;;;;;45.63;24.48;;;16.10;99.90;;;15.78;91.02;100571.00;5048756;28;20041;-85
2021/07/02 01:53:33;;;;;;;43.07;22.30;;;16.10;99.90;;;15.78;91.11;100565.53;5048982;28;20049;-84
2021/07/02 01:56:05;;;;;;;49.20;22.58;;;16.10;99.90;;;15.78;91.03;100571.00;5031976;28;20081;-84
2021/07/02 01:58:37;;;;;;;50.97;24.35;;;16.10;99.90;;;15.79;91.06;100572.72;5030201;28;20041;-84
2021/07/02 02:01:13;;;;;;;43.22;22.88;;;16.10;99.90;;;15.77;91.32;100564.69;5028865;28;20482;-84
2021/07/02 02:03:42;;;;;;;50.42;23.88;;;16.10;99.90;;;15.77;91.01;100561.13;5028213;28;20132;-84
2021/07/02 02:06:09;;;;;;;44.83;22.65;;;16.10;99.90;;;15.77;90.84;100569.34;5028409;28;20049;-84
2021/07/02 02:08:38;;;;;;;46.65;23.75;;;16.10;99.90;;;15.77;91.28;100578.41;5028475;28;20764;-84
2021/07/02 02:11:09;;;;;;;44.05;22.13;;;16.10;99.90;;;15.76;91.09;100568.50;5028443;28;20097;-84
2021/07/02 02:13:42;;;;;;;47.78;22.50;;;16.10;99.90;;;15.76;91.15;100578.63;5028566;28;20076;-84
2021/07/02 02:16:13;;;;;;;39.72;22.50;;;16.10;99.90;;;15.77;91.35;100572.09;5029961;28;20132;-84
2021/07/02 02:18:44;;;;;;;;;;;16.10;99.90;;;15.77;91.18;100570.19;5029099;28;20042;-84
2021/07/02 02:21:11;;;;;;;45.53;21.73;;;16.10;99.90;;;15.76;90.88;100573.13;5029714;28;19975;-85
2021/07/02 02:23:38;;;;;;;42.38;21.02;;;16.10;99.90;;;15.75;91.10;100574.22;5028494;28;20136;-84
2021/07/02 02:26:08;;;;;;;46.72;22.63;;;16.20;99.90;;;15.74;91.32;100565.13;5045846;28;20053;-85
2021/07/02 02:28:35;;;;;;;38.97;20.85;;;16.10;99.90;;;15.74;91.44;100575.25;5048282;28;20057;-85
2021/07/02 02:31:04;;;;;;;39.80;20.98;;;16.10;99.90;;;15.75;91.31;100566.81;5049206;28;20111;-84
2021/07/02 02:33:34;;;;;;;37.95;21.58;;;16.10;99.90;;;15.75;91.29;100565.97;5047864;28;20049;-84
2021/07/02 02:36:04;;;;;;;43.25;22.08;;;16.10;99.90;;;15.74;91.30;100573.34;5047229;28;20048;-85
2021/07/02 02:38:32;;;;;;;41.28;21.17;;;16.10;99.90;;;15.73;91.15;100568.94;5049197;28;20047;-85
2021/07/02 02:41:00;;;;;;;41.13;21.30;;;16.10;99.90;;;15.73;91.37;100571.69;5046862;28;20049;-85
2021/07/02 02:43:29;;;;;;;40.63;21.45;;;16.10;99.90;;;15.74;91.15;100576.09;5027594;28;20484;-84
2021/07/02 02:45:56;;;;;;;41.40;21.10;;;16.10;99.90;;;15.74;91.12;100564.28;5028967;28;20045;-86
2021/07/02 02:48:24;;;;;;;38.83;21.05;;;16.10;99.90;;;15.73;91.02;100566.19;5028812;28;20095;-85
2021/07/02 02:50:51;;;;;;;40.67;21.08;;;16.10;99.90;;;15.73;90.97;100573.56;5027682;28;20056;-85
2021/07/02 02:53:19;;;;;;;39.20;20.80;;;16.10;99.90;;;15.73;90.77;100574.44;5027428;28;20042;-84
2021/07/02 02:55:46;;;;;;;38.92;20.90;;;16.00;99.90;;;15.73;90.72;100573.56;5027338;28;20053;-84
2021/07/02 02:58:14;;;;;;;40.83;20.70;;;16.00;99.90;;;15.71;90.56;100567.44;5027623;28;20041;-85
2021/07/02 03:00:44;;;;;;;38.53;20.88;;;16.00;99.90;;;15.71;90.51;100572.94;5027202;28;20045;-85
2021/07/02 03:03:12;;;;;;;38.13;19.98;;;15.90;99.90;;;15.70;90.34;100572.06;5027306;28;20597;-85
2021/07/02 03:05:39;;;;;;;36.67;19.75;;;16.00;99.90;;;15.68;90.37;100578.84;5026985;28;20053;-84
2021/07/02 03:08:08;;;;;;;40.63;21.17;;;16.00;99.90;;;15.68;90.21;100579.69;5027101;28;20049;-84
2021/07/02 03:10:43;;;;;;;38.20;20.95;;;16.00;99.90;;;15.67;90.51;100580.75;5028533;28;20458;-84
2021/07/02 03:13:12;;;;;;;37.95;20.27;;;15.90;99.90;;;15.68;90.54;100581.59;5027221;28;20139;-84
2021/07/02 03:15:40;;;;;;;42.95;20.52;;;16.00;99.90;;;15.67;90.45;100586.25;5026400;28;20042;-85
2021/07/02 03:18:09;;;;;;;38.00;20.23;;;16.00;99.90;;;15.68;90.49;100578.84;5026916;28;20123;-84
2021/07/02 03:20:37;;;;;;;39.20;20.33;;;16.00;99.90;;;15.67;90.44;100585.38;5027203;28;20069;-84
2021/07/02 03:23:06;;;;;;;43.03;20.58;;;15.90;99.90;;;15.64;90.46;100586.66;5026979;28;20115;-84
2021/07/02 03:25:34;;;;;;;40.17;20.38;;;16.00;99.90;;;15.67;90.65;100590.88;5042027;28;20037;-84
2021/07/02 03:28:05;;;;;;;37.80;20.08;;;16.00;99.90;;;15.64;90.68;100584.75;5046579;28;20069;-85
2021/07/02 03:30:32;;;;;;;41.92;20.63;;;16.00;99.90;;;15.65;90.80;100593.84;5048354;28;20162;-84
2021/07/02 03:33:00;;;;;;;43.53;19.98;;;16.00;99.90;;;15.66;90.70;100589.19;5048152;28;20041;-84
2021/07/02 03:35:29;;;;;;;40.33;20.60;;;16.00;99.90;;;15.67;90.44;100593.59;5046835;28;20044;-85
2021/07/02 03:37:57;;;;;;;37.38;20.25;;;16.00;99.90;;;15.68;90.67;100587.06;5029039;28;20580;-85
2021/07/02 03:40:25;;;;;;;41.63;19.75;;;16.00;99.90;;;15.66;90.49;100583.72;5026574;28;20795;-84
2021/07/02 03:42:56;;;;;;;;;;;16.00;99.90;;;15.67;90.58;100590.88;5009189;28;20671;-84
2021/07/02 03:45:25;;;;;;;42.95;19.55;;;16.00;99.90;;;15.67;90.48;100590.88;5006908;28;19929;-84
2021/07/02 03:47:52;;;;;;;38.22;19.25;;;16.00;99.90;;;15.67;90.55;100599.09;5006883;28;20050;-84
2021/07/02 03:50:20;;;;;;;37.42;19.27;;;16.00;99.90;;;15.67;90.34;100593.59;5008361;28;20042;-85
2021/07/02 03:52:49;;;;;;;36.15;18.52;;;16.00;99.90;;;15.66;90.29;100594.69;5008367;28;20053;-84
2021/07/02 03:55:16;;;;;;;37.40;20.10;;;16.00;99.90;;;15.64;90.28;100592.97;5018448;28;20565;-84
2021/07/02 03:57:43;;;;;;;41.88;18.73;;;16.00;99.90;;;15.66;90.27;100592.78;5026392;28;20092;-84
2021/07/02 04:00:12;;;;;;;37.70;19.23;;;16.00;99.90;;;15.66;90.43;100591.94;5028330;28;20702;-83
2021/07/02 04:02:44;;;;;;;35.88;18.38;;;15.80;99.90;;;15.66;90.53;100592.78;5027414;28;20042;-82
2021/07/02 04:05:12;;;;;;;40.83;20.23;;;16.00;99.90;;;15.68;90.48;100598.06;5028141;28;20127;-81
2021/07/02 04:07:39;;;;;;;36.58;18.40;;;16.00;99.90;;;15.68;90.49;100598.06;5027427;28;20050;-82
2021/07/02 04:10:09;;;;;;;38.95;17.85;;;16.00;99.90;;;15.69;90.50;100602.47;5027930;28;20116;-83
2021/07/02 04:12:36;;;;;;;36.78;19.00;;;16.10;99.90;;;15.70;90.41;100602.25;5027873;28;20038;-83
2021/07/02 04:15:05;;;;;;;37.33;18.55;;;16.10;99.90;;;15.70;90.44;100602.25;5027826;28;20104;-83
2021/07/02 04:17:33;;;;;;;41.60;19.02;;;16.10;99.90;;;15.70;90.53;100606.91;5027668;28;20417;-83
2021/07/02 04:20:00;;;;;;;32.58;17.63;;;16.10;99.90;;;15.72;90.54;100611.09;5044421;28;20041;-84
2021/07/02 04:22:27;;;;;;;33.08;17.77;;;16.10;99.90;;;15.72;90.52;100610.28;5047797;28;20130;-82
2021/07/02 04:24:54;;;;;;;40.38;19.48;;;16.10;99.90;;;15.73;90.49;100611.97;5037992;28;20580;-83
2021/07/02 04:27:23;;;;;;;38.22;19.67;;;16.20;99.90;;;15.74;90.61;100613.66;5049940;28;20071;-82
2021/07/02 04:29:50;;;;;;;38.20;19.20;;;16.20;99.90;;;15.75;90.37;100607.97;5051761;28;20076;-82
2021/07/02 04:32:18;;;;;;;36.08;18.35;;;16.30;99.90;;;15.75;90.41;100607.13;5052030;28;20118;-82
2021/07/02 04:34:46;;;;;;;31.50;17.40;;;16.20;99.80;;;15.75;90.59;100607.13;5051925;28;20087;-82
2021/07/02 04:37:13;;;;;;;36.08;18.30;;;16.20;99.80;;;15.77;90.43;100607.75;5051410;28;20546;-82
2021/07/02 04:39:40;;;;;;;30.00;17.35;;;16.20;99.70;;;15.76;90.39;100609.66;5051792;28;20041;-82
2021/07/02 04:42:08;;;;;;;32.83;17.63;;;16.20;99.80;;;15.77;90.62;100611.34;5051555;28;20064;-83
2021/07/02 04:44:38;;;;;;;40.85;18.50;;;16.20;99.90;;;15.78;90.57;100614.91;5051665;28;20103;-82
2021/07/02 04:47:07;;;;;;;36.65;18.23;;;16.20;99.90;;;15.77;90.57;100608.59;5050943;28;20094;-82
2021/07/02 04:49:35;;;;;;;33.60;17.67;;;16.30;99.90;;;15.78;90.91;100609.44;5051543;28;20140;-83
2021/07/02 04:52:02;;;;;;;38.00;18.83;;;16.30;99.90;;;15.79;90.94;100614.72;5051478;28;20069;-83
2021/07/02 04:54:30;;;;;;;36.45;18.45;;;16.30;99.70;;;15.80;90.58;100612.81;5047442;28;20050;-82
2021/07/02 04:56:58;;;;;;;38.80;17.40;;;16.40;99.40;;;15.86;90.76;100608.34;5031062;28;20046;-83
2021/07/02 04:59:29;;;;;;;37.08;18.80;;;16.50;99.30;;;15.88;90.76;100609.84;5030701;28;20442;-83
2021/07/02 05:01:58;;;;;;;39.88;18.88;;;16.60;98.90;;;15.88;90.89;100607.09;5031601;28;20480;-85
2021/07/02 05:04:25;;;;;;;36.08;18.20;;;16.60;98.30;;;15.89;90.40;100611.50;5029435;28;20037;-84
2021/07/02 05:06:55;;;;;;;36.38;17.80;;;16.70;98.20;;;15.92;90.56;100611.09;5030964;28;20048;-85
2021/07/02 05:09:22;;;;;;;35.78;17.70;;;16.70;98.00;;;15.93;90.29;100614.66;5031246;28;20077;-85
2021/07/02 05:11:50;;;;;;;31.55;17.23;;;16.70;98.00;;;15.93;90.30;100612.75;5030698;28;20049;-84
2021/07/02 05:14:18;;;;;;;35.28;18.58;;;16.70;97.80;;;15.94;90.28;100622.69;5031326;28;20054;-82
2021/07/02 05:16:45;;;;;;;41.40;18.95;;;16.80;97.50;;;15.97;90.34;100607.66;5030347;28;20088;-82
2021/07/02 05:19:14;;;;;;;35.40;17.90;;;16.80;97.20;;;15.99;90.20;100614.66;5031053;28;20042;-80
2021/07/02 05:21:42;;;;;;;40.50;19.25;;;16.90;97.00;;;16.03;90.27;100618.63;5029323;28;20053;-80
2021/07/02 05:24:09;;;;;;;41.55;19.98;;;17.00;96.50;;;16.07;90.11;100619.03;5023054;28;20510;-82
2021/07/02 05:26:36;;;;;;;39.67;19.67;;;17.20;95.90;;;16.12;90.28;100619.22;5050535;28;20824;-80
2021/07/02 05:29:04;;;;;;;34.03;18.35;;;17.30;95.50;;;16.16;91.01;100620.47;5050545;28;20153;-81
2021/07/02 05:31:31;;;;;;;47.67;20.67;;;17.50;95.20;;;16.20;90.78;100615.38;5050681;28;20037;-78
2021/07/02 05:33:58;;;;;;;43.22;20.17;;;17.60;94.60;;;16.26;90.67;100617.25;5050073;28;20493;-78
2021/07/02 05:36:27;;;;;;;37.65;20.15;;;17.60;94.10;;;16.30;90.49;100612.16;5048861;28;20049;-79
2021/07/02 05:38:54;;;;;;;42.88;20.42;;;17.70;94.20;;;16.33;90.12;100611.72;5050013;28;20045;-79
2021/07/02 05:41:22;;;;;;;44.05;20.55;;;17.70;94.00;;;16.32;90.16;100610.88;5050212;28;20049;-79
2021/07/02 05:43:49;;;;;;;43.35;20.77;;;17.60;93.90;;;16.34;89.93;100614.25;5050526;28;20049;-79
2021/07/02 05:46:17;;;;;;;40.28;20.20;;;17.70;93.90;;;16.38;89.83;100620.97;5026328;28;20123;-80
2021/07/02 05:48:44;;;;;;;42.70;20.75;;;17.80;93.60;;;16.44;89.96;100612.94;5030423;28;20103;-79
2021/07/02 05:51:11;;;;;;;42.47;20.23;;;17.90;93.60;;;16.49;89.59;100613.13;5030007;28;20069;-79
2021/07/02 05:53:40;;;;;;;41.03;20.20;;;17.90;93.10;;;16.61;89.44;100619.56;5028711;28;20099;-79
2021/07/02 05:56:07;;;;;;;41.92;19.55;;;18.50;91.50;;;16.72;88.79;100627.09;5029778;28;20045;-79
2021/07/02 05:58:34;;;;;;;40.75;19.75;;;19.70;84.90;;;16.84;88.06;100629.16;5029999;28;20140;-79
2021/07/02 06:01:02;;;;;;;38.45;18.80;;;21.00;79.60;;;17.04;87.34;100620.75;5030080;28;20095;-79
2021/07/02 06:03:29;;;;;;;38.50;18.83;;;22.10;75.10;;;17.24;86.02;100623.31;5029955;28;20127;-80
2021/07/02 06:05:56;;;;;;;32.15;17.38;;;23.30;69.60;;;17.45;84.45;100631.16;5028335;28;20073;-79
2021/07/02 06:08:23;;;;;;;34.50;17.20;;;24.30;65.50;;;17.65;83.59;100630.09;5029757;28;20045;-79
2021/07/02 06:10:52;;;;;;;32.97;17.63;;;25.00;62.30;;;17.83;83.62;100626.50;5030091;28;20073;-80
2021/07/02 06:13:19;;;;;;;31.17;16.73;;;25.20;61.00;;;18.00;82.48;100632.28;5030040;28;20760;-80
2021/07/02 06:15:46;;;;;;;33.33;17.33;;;26.00;59.20;;;18.17;81.30;100636.91;5029672;28;20038;-80
2021/07/02 06:18:14;;;;;;;31.23;15.77;;;27.00;55.90;;;18.38;81.46;100631.97;5029833;28;20072;-80
2021/07/02 06:20:41;;;;;;;36.97;16.90;;;28.00;53.30;;;18.54;80.23;100627.69;5029047;28;20445;-80
2021/07/02 06:23:09;;;;;;;34.03;15.63;;;28.80;50.40;;;18.72;79.19;100624.06;5026558;28;20041;-80
2021/07/02 06:25:36;;;;;;;28.55;15.10;;;29.20;48.80;;;18.89;79.65;100624.25;5037169;28;20091;-80
2021/07/02 06:28:05;;;;;;;29.60;15.20;;;29.50;47.60;;;19.02;77.64;100629.53;5030071;28;20107;-80
2021/07/02 06:30:32;;;;;;;29.40;15.15;;;29.70;46.40;;;19.11;77.95;100628.13;5029311;28;20099;-79
2021/07/02 06:32:59;;;;;;;26.45;15.52;;;29.80;45.90;;;19.21;77.71;100629.41;5029933;28;20045;-80
2021/07/02 06:35:27;;;;;;;27.33;14.20;;;30.10;45.50;;;19.27;76.78;100632.06;5028195;28;20486;-80
2021/07/02 06:37:54;;;;;;;22.80;12.55;;;30.30;44.20;;;19.29;76.40;100635.44;5029132;28;20148;-80
2021/07/02 06:40:22;;;;;;;26.48;12.43;;;29.70;44.20;;;19.30;76.88;100636.25;5028202;28;20052;-80
2021/07/02 06:42:50;;;;;;;25.75;12.30;;;28.00;49.30;;;19.27;75.62;100631.25;5029261;28;20107;-80
2021/07/02 06:45:18;;;;;;;25.05;12.27;;;26.50;52.80;;;19.23;76.24;100636.41;5029496;28;20453;-80
2021/07/02 06:47:55;;;;;;;23.70;11.23;;;25.50;56.70;;;19.24;75.92;100635.31;5029101;28;20395;-80
2021/07/02 06:50:24;;;;;;;22.33;11.20;;;24.70;59.70;;;19.21;75.75;100640.44;5028306;28;20060;-80
2021/07/02 06:52:51;;;;;;;22.10;11.23;;;24.20;61.60;;;19.15;77.56;100636.72;5029249;28;20120;-80
2021/07/02 06:55:19;;;;;;;23.80;10.45;;;23.70;64.00;;;19.09;75.67;100633.00;5029041;28;20131;-80
2021/07/02 06:57:46;;;;;;;19.45;10.43;;;23.30;65.40;;;19.07;76.69;100637.09;5028926;28;20051;-80
2021/07/02 07:00:17;;;;;;;19.35;10.27;;;22.90;67.20;;;19.04;75.13;100643.06;5017839;28;20076;-80
2021/07/02 07:02:46;;;;;;;21.38;9.43;;;22.70;66.70;;;19.03;75.52;100647.75;5009225;28;20076;-80
2021/07/02 07:05:14;;;;;;;15.60;8.02;;;22.40;68.80;;;19.00;74.97;100645.50;5019525;28;20127;-80
2021/07/02 07:07:43;;;;;;;18.65;7.90;;;22.30;69.90;;;18.98;74.14;100644.84;5028648;28;20049;-80
2021/07/02 07:10:11;;;;;;;15.15;7.18;;;22.20;69.60;;;18.95;73.01;100645.34;5028588;28;20103;-80
2021/07/02 07:12:41;;;;;;;13.77;7.38;;;22.20;69.00;;;18.94;73.54;100649.19;5028933;28;20041;-80
2021/07/02 07:15:10;;;;;;;14.85;6.60;;;22.10;69.30;;;18.94;73.97;100649.19;5011487;28;20042;-80
2021/07/02 07:17:37;;;;;;;12.60;6.60;;;22.00;69.60;;;18.91;73.46;100647.75;5008970;28;20052;-80
2021/07/02 07:20:07;;;;;;;11.93;5.90;;;21.90;70.00;;;18.92;76.18;100643.06;5024068;28;20061;-80
2021/07/02 07:22:34;;;;;;;16.27;6.60;;;21.70;71.80;;;18.90;74.94;100653.50;5021530;28;20041;-80
2021/07/02 07:25:02;;;;;;;14.77;6.95;;;21.60;72.00;;;18.88;75.02;100650.13;5037739;28;20045;-80
2021/07/02 07:27:29;;;;;;;13.52;6.68;;;21.40;73.00;;;18.84;75.33;100649.75;5047965;28;20041;-80
2021/07/02 07:29:56;;;;;;;14.50;6.85;;;21.20;73.40;;;18.83;75.00;100647.22;5048241;28;20045;-80
2021/07/02 07:32:24;;;;;;;15.77;7.15;;;21.20;73.80;;;18.81;75.54;100641.97;5048216;28;20048;-80
2021/07/02 07:34:54;;;;;;;15.90;6.93;;;21.10;74.30;;;18.84;76.55;100643.41;5048131;28;20576;-81
2021/07/02 07:37:29;;;;;;;18.40;7.45;;;21.10;75.40;;;18.83;75.83;100648.09;5046275;28;20132;-81
2021/07/02 07:39:56;;;;;;;17.30;7.22;;;21.10;75.50;;;18.83;75.09;100650.00;5046379;28;20564;-80
2021/07/02 07:42:26;;;;;;;13.07;6.07;;;21.00;74.70;;;18.81;75.27;100654.91;5048035;28;20041;-81
2021/07/02 07:44:53;;;;;;;11.68;6.28;;;21.00;75.50;;;18.82;76.33;100651.09;5048046;28;20053;-80
2021/07/02 07:47:20;;;;;;;10.07;4.90;;;21.10;75.50;;;18.76;72.45;100652.84;5047941;28;20055;-81
2021/07/02 07:49:48;;;;;;;10.48;4.63;;;21.10;73.00;;;18.79;73.99;100657.03;5035093;28;20042;-81
2021/07/02 07:52:24;;;;;;;8.05;3.53;;;21.00;73.30;;;18.75;70.52;100652.00;5028245;28;20048;-81
2021/07/02 07:55:02;;;;;;;8.50;3.90;;;21.00;71.90;;;18.76;71.88;100653.66;5026475;28;20110;-83
2021/07/02 07:57:29;;;;;;;8.32;3.72;;;21.00;71.50;;;18.81;72.42;100660.41;5028029;28;20042;-82
2021/07/02 07:59:57;;;;;;;9.30;3.58;;;20.90;72.90;;;18.84;73.98;100657.19;5028116;28;20460;-82
2021/07/02 08:02:24;;;;;;;9.35;3.85;;;20.90;74.30;;;18.85;72.91;100651.44;5032468;28;20045;-82
2021/07/02 08:04:51;;;;;;;12.20;4.40;;;20.90;73.80;;;18.88;74.98;100656.47;5035045;28;20146;-82
2021/07/02 08:07:18;;;;;;;10.68;3.83;;;21.00;75.00;;;18.85;74.57;100662.47;5034242;28;20045;-82
2021/07/02 08:09:45;;;;;;;10.20;4.30;;;21.00;74.90;;;18.89;75.21;100657.34;5034643;28;20049;-80
2021/07/02 08:12:14;;;;;;;8.13;3.30;;;21.00;75.20;;;18.87;71.05;100665.00;5034291;28;20559;-82
2021/07/02 08:14:42;;;;;;;6.22;2.70;;;20.90;73.30;;;18.82;71.57;100662.94;5034703;28;20575;-81
2021/07/02 08:17:09;;;;;;;5.28;2.47;;;20.90;73.50;;;18.83;72.13;100659.13;5034328;28;20056;-82
2021/07/02 08:19:36;;;;;;;6.78;2.50;;;20.80;73.10;;;18.83;70.53;100661.03;5034674;28;20041;-82
2021/07/02 08:22:04;;;;;;;6.05;2.65;;;20.80;72.50;;;18.83;72.23;100658.25;5034582;28;20033;-82
2021/07/02 08:24:31;;;;;;;7.05;2.85;;;20.80;73.40;;;18.84;70.68;100657.19;5039731;28;20048;-82
2021/07/02 08:27:02;;;;;;;6.25;2.80;;;20.70;71.90;;;18.85;70.29;100661.63;5054476;28;20045;-83
2021/07/02 08:29:29;;;;;;;7.15;2.83;;;20.70;72.40;;;18.89;73.70;100657.34;5054532;28;20061;-82
2021/07/02 08:31:59;;;;;;;9.52;2.70;;;20.80;74.60;;;18.90;72.65;100664.53;5054532;28;20076;-82
2021/07/02 08:34:26;;;;;;;6.00;2.33;;;20.80;73.20;;;18.89;70.17;100660.09;5054426;28;20059;-82
2021/07/02 08:36:54;;;;;;;5.55;2.38;;;20.80;72.00;;;18.91;70.29;100660.69;5052732;28;20140;-81
2021/07/02 08:39:21;;;;;;;4.47;2.15;;;20.80;71.60;;;18.91;68.59;100660.69;5052841;28;20469;-81
2021/07/02 08:41:52;;;;;;;9.27;3.20;;;20.80;69.40;;;18.90;70.23;100653.50;5054432;28;20790;-80
2021/07/02 08:44:19;;;;;;;9.03;3.73;;;20.80;72.60;;;18.92;70.91;100659.59;5054590;28;20064;-81
2021/07/02 08:46:49;;;;;;;7.55;3.38;;;20.80;71.90;;;18.91;70.66;100657.94;5051989;28;20453;-81
2021/07/02 08:49:18;;;;;;;9.90;3.65;;;20.80;71.80;;;18.93;71.08;100662.13;5054408;28;20072;-80
2021/07/02 08:51:45;;;;;;;10.45;4.13;;;20.80;72.80;;;18.95;71.23;100661.91;5054180;28;20047;-80
2021/07/02 08:54:14;;;;;;;9.18;3.67;;;20.80;72.90;;;18.97;71.42;100659.75;5053045;28;20053;-80
2021/07/02 08:56:55;;;;;;;7.15;3.30;;;20.90;72.90;;;19.02;72.45;100656.25;5033783;28;20509;-81
2021/07/02 08:59:24;;;;;;;8.82;4.40;;;21.00;73.20;;;19.04;70.71;100654.97;5044257;28;20056;-81
2021/07/02 09:01:54;;;;;;;10.32;3.92;;;21.00;71.40;;;19.06;72.23;100657.50;5040268;28;20045;-81
2021/07/02 09:04:23;;;;;;;7.25;3.55;;;21.10;72.60;;;19.06;70.58;100661.09;5034203;28;20041;-81
2021/07/02 09:07:09;;;;;;;10.73;4.13;;;21.10;71.60;;;19.09;72.79;100652.31;5033967;28;20104;-79
2021/07/02 09:09:54;;;;;;;9.43;3.80;;;21.20;72.40;;;19.10;70.15;100654.00;5034015;28;20671;-79
2021/07/02 09:12:24;;;;;;;6.38;3.40;;;21.30;71.70;;;19.13;70.93;100661.81;5013577;28;20042;-80
2021/07/02 09:15:10;;;;;;;7.65;3.67;;;21.30;70.80;;;19.16;71.32;100660.50;5010321;28;20413;-81
2021/07/02 09:17:55;;;;;;;7.55;3.42;;;21.30;71.80;;;19.20;71.12;100650.66;5011111;28;20046;-81
2021/07/02 09:20:24;;;;;;;6.90;3.25;;;21.30;71.30;;;19.20;70.97;100661.69;5010942;28;20112;-81
2021/07/02 09:22:53;;;;;;;12.40;4.15;;;21.40;71.40;;;19.28;71.99;100660.50;5021662;28;20107;-81
2021/07/02 09:25:32;;;;;;;8.20;3.72;;;21.40;71.50;;;19.34;70.74;100665.06;5042287;28;20500;-81
2021/07/02 09:28:03;;;;;;;8.23;3.88;;;21.50;71.70;;;19.37;70.29;100664.59;5050726;28;20675;-81
2021/07/02 09:30:33;;;;;;;9.35;3.90;;;21.60;70.90;;;19.36;72.09;100673.94;5050607;28;20044;-81
2021/07/02 09:33:04;;;;;;;10.27;4.57;;;21.60;71.40;;;19.33;71.35;100664.22;5050939;28;20049;-81
2021/07/02 09:35:37;;;;;;;;;;;21.60;70.80;;;19.27;68.99;100669.88;5051189;28;20049;-81
2021/07/02 09:38:06;;;;;;;8.52;3.95;;;21.50;70.00;;;19.28;71.16;100666.84;5050389;28;19921;-81
2021/07/02 09:40:35;;;;;;;10.75;3.83;;;21.60;70.80;;;19.34;71.10;100673.34;5050582;28;20081;-81
2021/07/02 09:43:09;;;;;;;11.13;4.03;;;21.60;71.00;;;19.38;68.51;100670.94;5050124;28;20057;-81
2021/07/02 09:45:46;;;;;;;8.98;3.83;;;21.70;69.90;;;19.36;68.08;100673.94;5050380;28;20064;-81
2021/07/02 09:48:17;;;;;;;6.97;3.58;;;21.70;68.50;;;19.37;68.04;100675.63;5050027;28;20551;-81
2021/07/02 09:50:47;;;;;;;10.77;3.78;;;21.70;68.20;;;19.37;68.84;100680.31;5050334;28;20571;-81
2021/07/02 09:53:19;;;;;;;8.65;3.67;;;21.70;68.90;;;19.37;69.76;100674.81;5048415;28;20126;-81
2021/07/02 09:55:51;;;;;;;7.78;3.65;;;21.70;69.60;;;19.31;68.52;100679.34;5032489;28;20069;-81
2021/07/02 09:58:20;;;;;;;8.98;3.70;;;21.70;69.90;;;19.31;69.62;100680.19;5029987;28;20126;-82
2021/07/02 10:00:51;;;;;;;8.48;3.90;;;21.60;70.50;;;19.30;68.69;100677.66;5030325;28;20494;-81
2021/07/02 10:03:23;;;;;;;9.02;3.75;;;21.50;69.80;;;19.29;68.42;100676.81;5030460;28;20065;-81
2021/07/02 10:05:54;;;;;;;7.90;3.72;;;21.50;69.60;;;19.24;67.97;100676.69;5029788;28;20081;-81
2021/07/02 10:08:24;;;;;;;14.27;4.10;;;21.40;69.50;;;19.26;69.18;100673.69;5030180;28;20573;-81
2021/07/02 10:10:53;;;;;;;9.35;4.07;;;21.40;70.10;;;19.31;69.49;100682.13;5021443;28;20056;-81